createdAt,value
2019-04-26T00:01:42.435Z,17.20
2019-04-26T00:04:10.226Z,17.20
2019-04-26T00:06:36.471Z,17.20
2019-04-26T00:09:20.580Z,17.20
2019-04-26T00:11:51.046Z,17.20
2019-04-26T00:14:35.799Z,17.20
2019-04-26T00:17:06.683Z,17.20
2019-04-26T00:19:33.146Z,17.20
2019-04-26T00:21:59.746Z,17.20
2019-04-26T00:24:28.483Z,17.20
2019-04-26T00:26:54.235Z,17.20
2019-04-26T00:29:21.151Z,17.10
2019-04-26T00:31:47.343Z,17.10
2019-04-26T00:34:13.619Z,17.10
2019-04-26T00:36:39.800Z,17.10
2019-04-26T00:39:05.951Z,17.10
2019-04-26T00:41:32.007Z,17.10
2019-04-26T00:43:58.267Z,17.10
2019-04-26T00:46:26.947Z,17.10
2019-04-26T00:48:55.111Z,17.10
2019-04-26T00:51:21.360Z,17.10
2019-04-26T00:53:48.627Z,17.00
2019-04-26T00:56:15.910Z,17.00
2019-04-26T00:58:42.244Z,17.00
2019-04-26T01:01:08.900Z,16.90
2019-04-26T01:03:34.973Z,16.90
2019-04-26T01:06:02.936Z,16.80
2019-04-26T01:08:28.991Z,16.80
2019-04-26T01:10:55.040Z,16.70
2019-04-26T01:13:22.008Z,16.60
2019-04-26T01:15:48.391Z,16.60
2019-04-26T01:18:18.208Z,16.50
2019-04-26T01:20:46.760Z,16.50
2019-04-26T01:23:17.428Z,16.40
2019-04-26T01:25:59.331Z,16.40
2019-04-26T01:28:31.814Z,16.40
2019-04-26T01:31:00.578Z,16.30
2019-04-26T01:33:26.944Z,16.30
2019-04-26T01:35:53.295Z,16.20
2019-04-26T01:38:20.716Z,16.20
2019-04-26T01:40:49.624Z,16.20
2019-04-26T01:43:17.791Z,16.10
2019-04-26T01:45:58.640Z,16.00
2019-04-26T01:48:44.784Z,16.00
2019-04-26T01:51:14.724Z,16.00
2019-04-26T01:53:44.104Z,15.90
2019-04-26T01:56:11.764Z,15.90
2019-04-26T01:58:37.848Z,15.90
2019-04-26T02:01:05.924Z,15.80
2019-04-26T02:03:31.985Z,15.80
2019-04-26T02:05:58.055Z,15.70
2019-04-26T02:08:24.518Z,15.70
2019-04-26T02:10:50.792Z,15.60
2019-04-26T02:13:17.264Z,15.60
2019-04-26T02:15:43.311Z,15.50
2019-04-26T02:18:09.574Z,15.50
2019-04-26T02:20:48.507Z,15.50
2019-04-26T02:23:34.421Z,15.50
2019-04-26T02:26:19.563Z,15.40
2019-04-26T02:28:46.831Z,15.30
2019-04-26T02:31:12.995Z,15.20
2019-04-26T02:33:39.049Z,15.20
2019-04-26T02:36:05.122Z,15.10
2019-04-26T02:38:32.919Z,15.00
2019-04-26T02:40:59.340Z,15.00
2019-04-26T02:43:27.870Z,14.90
2019-04-26T02:45:59.531Z,14.80
2019-04-26T02:48:40.561Z,14.80
2019-04-26T02:51:32.893Z,14.80
2019-04-26T02:54:03.279Z,14.80
2019-04-26T02:56:36.237Z,14.80
2019-04-26T02:59:32.486Z,14.70
2019-04-26T03:02:02.708Z,14.70
2019-04-26T03:04:30.464Z,14.60
2019-04-26T03:07:03.333Z,14.60
2019-04-26T03:09:33.340Z,14.60
2019-04-26T03:12:03.778Z,14.60
2019-04-26T03:14:37.084Z,14.60
2019-04-26T03:17:18.436Z,14.50
2019-04-26T03:19:53.252Z,14.50
2019-04-26T03:22:56.620Z,14.50
2019-04-26T03:25:29.128Z,14.40
2019-04-26T03:28:05.260Z,14.40
2019-04-26T03:30:44.481Z,14.40
2019-04-26T03:33:16.269Z,14.30
2019-04-26T03:35:59.913Z,14.30
2019-04-26T03:38:57.618Z,14.30
2019-04-26T03:41:29.376Z,14.30
2019-04-26T03:44:16.250Z,14.30
2019-04-26T03:46:46.213Z,14.40
2019-04-26T03:49:39.877Z,14.30
2019-04-26T03:52:22.733Z,14.30
2019-04-26T03:54:58.812Z,14.30
2019-04-26T03:57:51.256Z,14.30
2019-04-26T04:00:21.121Z,14.30
2019-04-26T04:03:04.776Z,14.30
2019-04-26T04:05:44.262Z,14.30
2019-04-26T04:08:14.512Z,14.30
2019-04-26T04:10:56.548Z,14.30
2019-04-26T04:13:38.859Z,14.30
2019-04-26T04:16:21.160Z,14.20
2019-04-26T04:18:53.906Z,14.20
2019-04-26T04:21:45.091Z,14.20
2019-04-26T04:24:15.192Z,14.20
2019-04-26T04:27:09.357Z,14.20
2019-04-26T04:29:49.004Z,14.20
2019-04-26T04:32:40.457Z,14.20
2019-04-26T04:35:10.136Z,14.20
2019-04-26T04:37:56.380Z,14.20
2019-04-26T04:40:20.191Z,14.20
2019-04-26T04:43:06.863Z,14.30
2019-04-26T04:46:12.212Z,14.40
2019-04-26T04:49:07.680Z,14.40
2019-04-26T04:51:44.364Z,14.60
2019-04-26T04:54:23.109Z,14.70
2019-04-26T04:56:53.048Z,14.70
2019-04-26T04:59:41.742Z,14.70
2019-04-26T05:02:22.883Z,14.80
2019-04-26T05:05:05.806Z,14.80
2019-04-26T05:08:05.241Z,14.80
2019-04-26T05:10:27.363Z,14.80
2019-04-26T05:12:58.405Z,14.80
2019-04-26T05:15:44.994Z,14.70
2019-04-26T05:18:26.393Z,14.60
2019-04-26T05:21:11.063Z,14.60
2019-04-26T05:23:57.907Z,14.50
2019-04-26T05:26:41.019Z,14.50
2019-04-26T05:29:27.520Z,14.40
2019-04-26T05:32:32.120Z,14.40
2019-04-26T05:35:41.968Z,14.40
2019-04-26T05:38:18.623Z,14.50
2019-04-26T05:41:01.641Z,14.60
2019-04-26T05:43:50.305Z,14.60
2019-04-26T05:46:48.032Z,14.60
2019-04-26T05:49:47.116Z,14.60
2019-04-26T05:52:47.255Z,14.50
2019-04-26T05:55:35.595Z,14.40
2019-04-26T05:58:32.388Z,14.50
2019-04-26T06:01:31.433Z,14.50
2019-04-26T06:04:21.656Z,14.50
2019-04-26T06:07:05.571Z,14.80
2019-04-26T06:09:54.568Z,15.00
2019-04-26T06:12:35.619Z,15.30
2019-04-26T06:15:07.404Z,15.60
2019-04-26T06:17:57.656Z,15.80
2019-04-26T06:20:33.443Z,15.80
2019-04-26T06:23:21.503Z,15.70
2019-04-26T06:26:01.392Z,15.70
2019-04-26T06:28:52.929Z,15.60
2019-04-26T06:31:29.048Z,15.70
2019-04-26T06:34:10.819Z,15.70
2019-04-26T06:36:45.572Z,15.70
2019-04-26T06:39:29.503Z,15.80
2019-04-26T06:42:06.575Z,15.80
2019-04-26T06:44:50.664Z,15.80
2019-04-26T06:47:40.871Z,15.80
2019-04-26T06:50:24.439Z,15.90
2019-04-26T06:53:00.074Z,16.00
2019-04-26T06:55:36.845Z,16.20
2019-04-26T06:58:36.763Z,16.20
2019-04-26T07:01:08.543Z,16.30
2019-04-26T07:04:10.595Z,16.30
2019-04-26T07:07:15.971Z,16.20
2019-04-26T07:09:59.092Z,16.20
2019-04-26T07:12:37.503Z,16.10
2019-04-26T07:15:28.859Z,16.10
2019-04-26T07:18:15.715Z,16.10
2019-04-26T07:20:50.543Z,16.10
2019-04-26T07:23:47.171Z,16.30
2019-04-26T07:26:33.692Z,16.40
2019-04-26T07:29:14.760Z,16.50
2019-04-26T07:31:53.091Z,16.70
2019-04-26T07:34:58.334Z,16.90
2019-04-26T07:37:43.034Z,17.10
2019-04-26T07:40:43.744Z,17.10
2019-04-26T07:43:48.443Z,17.20
2019-04-26T07:46:21.595Z,17.30
2019-04-26T07:49:10.262Z,17.20
2019-04-26T07:51:52.564Z,17.20
2019-04-26T07:54:31.523Z,17.20
2019-04-26T07:57:40.224Z,17.20
2019-04-26T08:00:19.787Z,17.20
2019-04-26T08:03:08.760Z,17.30
2019-04-26T08:05:43.432Z,17.30
2019-04-26T08:08:12.995Z,17.40
2019-04-26T08:10:42.862Z,17.40
2019-04-26T08:13:17.774Z,17.40
2019-04-26T08:15:49.543Z,17.50
2019-04-26T08:18:21.316Z,17.60
2019-04-26T08:20:56.214Z,17.60
2019-04-26T08:23:38.483Z,17.40
2019-04-26T08:25:57.848Z,17.40
2019-04-26T08:28:26.699Z,17.40
2019-04-26T08:30:55.162Z,17.30
2019-04-26T08:33:26.444Z,17.40
2019-04-26T08:35:55.364Z,17.40
2019-04-26T08:38:23.232Z,17.60
2019-04-26T08:40:50.947Z,17.60
2019-04-26T08:43:31.891Z,17.70
2019-04-26T08:46:10.070Z,17.70
2019-04-26T08:48:47.856Z,17.80
2019-04-26T08:51:21.803Z,17.60
2019-04-26T08:53:50.927Z,17.60
2019-04-26T08:56:20.779Z,17.60
2019-04-26T08:58:50.677Z,17.50
2019-04-26T09:01:21.043Z,17.40
2019-04-26T09:03:52.218Z,17.60
2019-04-26T09:06:23.295Z,17.60
2019-04-26T09:08:52.947Z,17.60
2019-04-26T09:11:26.018Z,17.50
2019-04-26T09:13:50.575Z,17.60
2019-04-26T09:16:18.089Z,17.80
2019-04-26T09:18:52.949Z,18.10
2019-04-26T09:21:13.224Z,18.30
2019-04-26T09:23:59.107Z,18.30
2019-04-26T09:26:46.627Z,18.20
2019-04-26T09:29:17.817Z,18.20
2019-04-26T09:31:54.494Z,18.30
2019-04-26T09:34:42.705Z,18.30
2019-04-26T09:37:06.583Z,18.30
2019-04-26T09:39:32.639Z,18.30
2019-04-26T09:42:09.617Z,18.30
2019-04-26T09:44:41.496Z,18.30
2019-04-26T09:47:20.412Z,18.20
2019-04-26T09:49:48.375Z,18.10
2019-04-26T09:52:16.352Z,18.00
2019-04-26T09:54:42.396Z,18.00
2019-04-26T09:57:08.463Z,18.00
2019-04-26T09:59:36.320Z,18.00
2019-04-26T10:02:02.584Z,18.00
2019-04-26T10:04:28.668Z,18.00
2019-04-26T10:06:54.735Z,17.80
2019-04-26T10:09:22.753Z,17.60
2019-04-26T10:11:50.956Z,17.80
2019-04-26T10:14:18.907Z,18.10
2019-04-26T10:17:02.055Z,18.40
2019-04-26T10:19:31.678Z,18.50
2019-04-26T10:21:57.959Z,18.50
2019-04-26T10:24:24.028Z,18.50
2019-04-26T10:26:50.079Z,18.80
2019-04-26T10:29:16.132Z,18.80
2019-04-26T10:31:42.195Z,18.90
2019-04-26T10:34:11.964Z,19.10
2019-04-26T10:36:36.215Z,19.10
2019-04-26T10:39:04.681Z,19.10
2019-04-26T10:41:30.731Z,19.10
2019-04-26T10:43:56.791Z,19.20
2019-04-26T10:46:24.474Z,19.40
2019-04-26T10:48:51.331Z,19.30
2019-04-26T10:51:19.434Z,19.10
2019-04-26T10:53:53.134Z,19.00
2019-04-26T10:56:24.228Z,18.90
2019-04-26T10:58:56.152Z,18.80
2019-04-26T11:01:22.195Z,18.90
2019-04-26T11:03:48.260Z,19.10
2019-04-26T11:06:14.618Z,19.10
2019-04-26T11:08:40.680Z,19.00
2019-04-26T11:11:07.340Z,18.90
2019-04-26T11:13:33.387Z,18.80
2019-04-26T11:16:02.543Z,19.00
2019-04-26T11:18:28.583Z,18.90
2019-04-26T11:20:54.874Z,18.90
2019-04-26T11:23:20.999Z,18.90
2019-04-26T11:25:47.079Z,18.70
2019-04-26T11:28:13.127Z,18.60
2019-04-26T11:30:39.195Z,18.70
2019-04-26T11:33:07.337Z,18.80
2019-04-26T11:35:34.792Z,18.90
2019-04-26T11:38:01.173Z,18.70
2019-04-26T11:40:27.596Z,18.70
2019-04-26T11:42:53.647Z,18.60
2019-04-26T11:45:19.698Z,18.60
2019-04-26T11:47:56.021Z,18.70
2019-04-26T11:50:16.225Z,18.90
2019-04-26T11:52:41.779Z,18.90
2019-04-26T11:55:08.235Z,18.90
2019-04-26T11:57:34.287Z,18.80
2019-04-26T12:00:01.440Z,18.70
2019-04-26T12:02:30.239Z,18.70
2019-04-26T12:05:03.993Z,18.70
2019-04-26T12:07:31.971Z,18.70
2019-04-26T12:10:09.227Z,18.80
2019-04-26T12:12:33.659Z,18.80
2019-04-26T12:15:03.698Z,19.00
2019-04-26T12:17:31.145Z,19.10
2019-04-26T12:19:55.795Z,18.90
2019-04-26T12:22:21.843Z,18.90
2019-04-26T12:24:47.899Z,18.80
2019-04-26T12:27:14.004Z,18.70
2019-04-26T12:29:40.207Z,18.60
2019-04-26T12:32:06.267Z,18.60
2019-04-26T12:34:32.331Z,18.60
2019-04-26T12:36:58.384Z,18.70
2019-04-26T12:39:24.636Z,18.70
2019-04-26T12:41:50.979Z,18.90
2019-04-26T12:44:17.030Z,19.30
2019-04-26T12:47:03.525Z,19.50
2019-04-26T12:49:27.839Z,19.70
2019-04-26T12:51:53.905Z,19.80
2019-04-26T12:55:36.432Z,19.70
2019-04-26T12:58:02.599Z,19.70
2019-04-26T13:00:33.160Z,19.50
2019-04-26T13:02:58.385Z,19.50
2019-04-26T13:05:24.444Z,19.60
2019-04-26T13:07:52.199Z,19.70
2019-04-26T13:10:22.932Z,19.70
2019-04-26T13:12:59.856Z,19.70
2019-04-26T13:15:52.572Z,19.60
2019-04-26T13:18:18.828Z,19.50
2019-04-26T13:20:44.884Z,19.40
2019-04-26T13:23:10.964Z,19.10
2019-04-26T13:25:40.529Z,18.80
2019-04-26T13:28:04.981Z,18.40
2019-04-26T13:30:33.012Z,18.20
2019-04-26T13:32:59.015Z,18.20
2019-04-26T13:35:25.366Z,18.30
2019-04-26T13:37:51.505Z,18.40
2019-04-26T13:40:17.774Z,18.50
2019-04-26T13:42:47.467Z,18.50
2019-04-26T13:45:17.044Z,18.40
2019-04-26T13:47:44.995Z,18.20
2019-04-26T13:50:22.387Z,18.10
2019-04-26T13:52:47.323Z,18.20
2019-04-26T13:55:13.394Z,18.30
2019-04-26T13:57:40.148Z,18.20
2019-04-26T14:00:11.652Z,18.30
2019-04-26T14:02:37.628Z,18.50
2019-04-26T14:05:04.189Z,18.60
2019-04-26T14:07:30.272Z,18.40
2019-04-26T14:09:56.331Z,18.20
2019-04-26T14:12:22.492Z,17.80
2019-04-26T14:14:48.645Z,17.60
2019-04-26T14:17:14.703Z,17.50
2019-04-26T14:19:40.772Z,17.40
2019-04-26T14:22:08.140Z,17.40
2019-04-26T14:24:36.308Z,17.40
2019-04-26T14:27:04.271Z,17.40
2019-04-26T14:29:32.432Z,17.30
2019-04-26T14:31:58.420Z,17.20
2019-04-26T14:34:24.494Z,16.90
2019-04-26T14:36:50.579Z,16.70
2019-04-26T14:39:19.654Z,16.50
2019-04-26T14:41:44.758Z,16.30
2019-04-26T14:44:15.631Z,16.20
2019-04-26T14:46:48.564Z,16.10
2019-04-26T14:49:06.871Z,15.90
2019-04-26T14:51:32.943Z,15.80
2019-04-26T14:53:58.999Z,15.60
2019-04-26T14:56:29.320Z,15.50
2019-04-26T14:58:53.035Z,15.40
2019-04-26T15:01:21.023Z,15.20
2019-04-26T15:03:57.142Z,15.10
2019-04-26T15:06:23.674Z,15.00
2019-04-26T15:08:49.954Z,14.90
2019-04-26T15:11:18.175Z,14.90
2019-04-26T15:13:44.435Z,14.90
2019-04-26T15:16:12.394Z,15.00
2019-04-26T15:18:38.453Z,14.90
2019-04-26T15:21:04.515Z,15.00
2019-04-26T15:23:30.581Z,15.10
2019-04-26T15:25:58.462Z,15.10
2019-04-26T15:28:24.595Z,15.10
2019-04-26T15:30:52.598Z,15.00
2019-04-26T15:33:18.647Z,14.90
2019-04-26T15:35:45.487Z,14.90
2019-04-26T15:38:11.547Z,14.90
2019-04-26T15:40:54.986Z,14.90
2019-04-26T15:43:28.704Z,14.90
2019-04-26T15:46:02.348Z,15.00
2019-04-26T15:48:36.255Z,15.10
2019-04-26T15:51:02.868Z,15.10
2019-04-26T15:53:28.923Z,15.10
2019-04-26T15:55:54.991Z,15.10
2019-04-26T15:58:21.237Z,15.10
2019-04-26T16:00:47.379Z,15.10
2019-04-26T16:03:13.428Z,15.10
2019-04-26T16:05:40.388Z,15.10
2019-04-26T16:08:06.439Z,15.10
2019-04-26T16:10:34.645Z,15.00
2019-04-26T16:13:15.755Z,14.90
2019-04-26T16:15:30.147Z,14.80
2019-04-26T16:17:56.195Z,14.70
2019-04-26T16:20:22.247Z,14.60
2019-04-26T16:22:49.207Z,14.60
2019-04-26T16:25:15.471Z,14.50
2019-04-26T16:27:43.018Z,14.50
2019-04-26T16:30:17.290Z,14.40
2019-04-26T16:32:48.223Z,14.30
2019-04-26T16:35:14.271Z,14.20
2019-04-26T16:37:40.348Z,14.10
2019-04-26T16:40:07.743Z,14.10
2019-04-26T16:42:34.889Z,14.10
2019-04-26T16:45:04.601Z,14.10
2019-04-26T16:47:28.906Z,14.10
2019-04-26T16:49:55.112Z,14.00
2019-04-26T16:52:21.219Z,14.00
2019-04-26T16:54:47.372Z,14.00
2019-04-26T16:57:13.430Z,14.00
2019-04-26T16:59:47.450Z,14.00
2019-04-26T17:02:07.460Z,14.00
2019-04-26T17:04:36.164Z,13.90
2019-04-26T17:07:02.867Z,13.90
2019-04-26T17:09:52.305Z,13.90
2019-04-26T17:11:57.574Z,13.80
2019-04-26T17:14:24.601Z,13.80
2019-04-26T17:16:53.039Z,13.80
2019-04-26T17:19:19.988Z,13.70
2019-04-26T17:21:48.119Z,13.60
2019-04-26T17:24:16.096Z,13.60
2019-04-26T17:26:49.629Z,13.50
2019-04-26T17:29:15.703Z,13.40
2019-04-26T17:31:43.134Z,13.30
2019-04-26T17:34:09.403Z,13.30
2019-04-26T17:36:35.455Z,13.20
2019-04-26T17:39:01.508Z,13.10
2019-04-26T17:41:27.562Z,13.10
2019-04-26T17:44:06.170Z,13.00
2019-04-26T17:46:21.721Z,12.90
2019-04-26T17:48:49.391Z,12.80
2019-04-26T17:51:18.977Z,12.80
2019-04-26T17:53:44.050Z,12.70
2019-04-26T17:56:13.445Z,12.60
2019-04-26T17:58:51.640Z,12.60
2019-04-26T18:01:07.652Z,12.50
2019-04-26T18:03:33.746Z,12.50
2019-04-26T18:06:01.048Z,12.40
2019-04-26T18:08:41.082Z,12.40
2019-04-26T18:10:55.345Z,12.40
2019-04-26T18:13:21.403Z,12.30
2019-04-26T18:15:48.624Z,12.30
2019-04-26T18:18:34.166Z,12.20
2019-04-26T18:21:05.226Z,12.20
2019-04-26T18:23:31.676Z,12.20
2019-04-26T18:25:57.764Z,12.10
2019-04-26T18:28:23.820Z,12.10
2019-04-26T18:30:49.888Z,12.10
2019-04-26T18:33:17.485Z,12.00
2019-04-26T18:35:48.846Z,12.00
2019-04-26T18:38:12.516Z,12.00
2019-04-26T18:40:58.924Z,11.90
2019-04-26T18:43:07.486Z,11.90
2019-04-26T18:45:34.331Z,11.90
2019-04-26T18:48:01.153Z,11.90
2019-04-26T18:50:28.455Z,11.90
2019-04-26T18:53:13.939Z,11.80
2019-04-26T18:55:40.515Z,11.80
2019-04-26T18:58:06.561Z,11.80
2019-04-26T19:00:34.614Z,11.80
2019-04-26T19:03:00.668Z,11.70
2019-04-26T19:05:29.847Z,11.70
2019-04-26T19:07:54.690Z,11.70
2019-04-26T19:10:21.607Z,11.70
2019-04-26T19:12:48.987Z,11.60
2019-04-26T19:15:37.004Z,11.60
2019-04-26T19:18:04.260Z,11.60
2019-04-26T19:20:32.364Z,11.60
2019-04-26T19:23:00.133Z,11.50
2019-04-26T19:25:29.991Z,11.50
2019-04-26T19:27:54.242Z,11.50
2019-04-26T19:30:21.704Z,11.50
2019-04-26T19:32:47.950Z,11.50
2019-04-26T19:35:14.505Z,11.50
2019-04-26T19:37:40.799Z,11.50
2019-04-26T19:40:08.882Z,11.50
2019-04-26T19:42:35.063Z,11.60
2019-04-26T19:45:11.777Z,11.60
2019-04-26T19:47:35.461Z,11.60
2019-04-26T19:50:15.606Z,11.60
2019-04-26T19:52:45.034Z,11.60
2019-04-26T19:55:19.307Z,11.60
2019-04-26T19:58:03.759Z,11.60
2019-04-26T20:00:32.009Z,11.60
2019-04-26T20:02:58.071Z,11.60
2019-04-26T20:05:24.221Z,11.60
2019-04-26T20:07:51.866Z,11.60
2019-04-26T20:10:18.146Z,11.60
2019-04-26T20:12:44.499Z,11.60
2019-04-26T20:15:25.144Z,11.70
2019-04-26T20:17:39.423Z,11.60
2019-04-26T20:20:16.847Z,11.70
2019-04-26T20:22:33.431Z,11.70
2019-04-26T20:24:59.528Z,11.60
2019-04-26T20:27:27.856Z,11.60
2019-04-26T20:29:53.544Z,11.60
2019-04-26T20:32:24.159Z,11.60
2019-04-26T20:35:08.920Z,11.60
2019-04-26T20:37:34.984Z,11.60
2019-04-26T20:40:16.175Z,11.60
2019-04-26T20:42:29.011Z,11.60
2019-04-26T20:44:55.111Z,11.60
2019-04-26T20:47:21.677Z,11.70
2019-04-26T20:49:54.126Z,11.70
2019-04-26T20:52:16.454Z,11.60
2019-04-26T20:54:46.546Z,11.60
2019-04-26T20:57:12.409Z,11.60
2019-04-26T20:59:38.580Z,11.60
2019-04-26T21:02:08.017Z,11.60
2019-04-26T21:04:38.054Z,11.70
2019-04-26T21:07:02.283Z,11.70
2019-04-26T21:09:28.547Z,11.60
2019-04-26T21:11:54.611Z,11.60
2019-04-26T21:14:21.353Z,11.60
2019-04-26T21:16:49.440Z,11.70
2019-04-26T21:19:19.120Z,11.70
2019-04-26T21:21:48.339Z,11.70
2019-04-26T21:24:14.894Z,11.70
2019-04-26T21:26:51.409Z,11.70
2019-04-26T21:29:35.006Z,11.70
2019-04-26T21:32:11.567Z,11.70
2019-04-26T21:34:39.629Z,11.80
2019-04-26T21:37:22.764Z,11.80
2019-04-26T21:39:56.578Z,11.80
2019-04-26T21:42:25.635Z,10.60
2019-04-26T21:44:53.244Z,11.80
2019-04-26T21:47:19.572Z,11.80
2019-04-26T21:49:45.616Z,11.80
2019-04-26T21:52:13.518Z,11.80
2019-04-26T21:54:39.715Z,11.80
2019-04-26T21:57:05.772Z,11.80
2019-04-26T21:59:35.116Z,11.80
2019-04-26T22:01:59.800Z,11.80
2019-04-26T22:04:28.919Z,11.80
2019-04-26T22:06:55.652Z,11.70
2019-04-26T22:09:28.460Z,11.70
2019-04-26T22:12:01.269Z,11.70
2019-04-26T22:14:34.076Z,11.90
2019-04-26T22:17:14.720Z,11.90
2019-04-26T22:19:49.099Z,11.60
2019-04-26T22:22:37.493Z,11.70
2019-04-26T22:25:06.889Z,11.90
2019-04-26T22:27:33.157Z,11.70
2019-04-26T22:30:03.169Z,11.50
2019-04-26T22:32:29.188Z,11.50
2019-04-26T22:34:57.332Z,11.50
2019-04-26T22:37:29.992Z,11.50
2019-04-26T22:39:54.211Z,11.50
2019-04-26T22:42:20.819Z,13.20
2019-04-26T22:44:48.953Z,11.10
2019-04-26T22:47:16.899Z,11.50
2019-04-26T22:49:45.199Z,11.60
2019-04-26T22:52:15.738Z,11.60
2019-04-26T22:54:42.851Z,11.60
2019-04-26T22:57:08.100Z,11.60
2019-04-26T22:59:38.219Z,11.60
2019-04-26T23:02:04.175Z,11.60
2019-04-26T23:04:30.244Z,11.60
2019-04-26T23:06:56.599Z,11.50
2019-04-26T23:09:23.296Z,11.50
2019-04-26T23:12:06.331Z,11.70
2019-04-26T23:14:37.840Z,11.40
2019-04-26T23:17:14.760Z,11.40
2019-04-26T23:19:43.656Z,11.30
2019-04-26T23:22:09.943Z,11.30
2019-04-26T23:24:36.011Z,11.30
2019-04-26T23:27:03.842Z,11.30
2019-04-26T23:29:30.024Z,11.30
2019-04-26T23:31:56.076Z,11.20
2019-04-26T23:34:22.829Z,11.20
2019-04-26T23:36:50.290Z,11.20
2019-04-26T23:39:16.441Z,11.10
2019-04-26T23:41:44.172Z,11.10
2019-04-26T23:44:10.463Z,11.10
2019-04-26T23:46:36.519Z,11.00
2019-04-26T23:49:03.066Z,11.10
2019-04-26T23:51:29.206Z,11.00
2019-04-26T23:53:57.747Z,11.00
2019-04-26T23:56:25.234Z,11.00
2019-04-26T23:58:51.214Z,11.00
